sensor_id;sensor_type;location;lat;lon;timestamp;P1;durP1;ratioP1;P2;durP2;ratioP2
43891;SDS011;29555;45.350;5.578;2022-12-18T00:01:01;32.20;;;17.27;;
43891;SDS011;29555;45.350;5.578;2022-12-18T00:03:31;29.33;;;16.15;;
43891;SDS011;29555;45.350;5.578;2022-12-18T00:05:58;29.88;;;14.65;;
43891;SDS011;29555;45.350;5.578;2022-12-18T00:08:23;31.67;;;17.02;;
43891;SDS011;29555;45.350;5.578;2022-12-18T00:10:49;27.38;;;14.98;;
43891;SDS011;29555;45.350;5.578;2022-12-18T00:13:14;32.90;;;16.88;;
43891;SDS011;29555;45.350;5.578;2022-12-18T00:15:39;26.73;;;16.77;;
43891;SDS011;29555;45.350;5.578;2022-12-18T00:18:05;27.83;;;16.52;;
43891;SDS011;29555;45.350;5.578;2022-12-18T00:20:31;25.00;;;16.17;;
43891;SDS011;29555;45.350;5.578;2022-12-18T00:23:00;31.02;;;16.98;;
43891;SDS011;29555;45.350;5.578;2022-12-18T00:25:25;26.40;;;15.95;;
43891;SDS011;29555;45.350;5.578;2022-12-18T00:27:51;36.10;;;17.50;;
43891;SDS011;29555;45.350;5.578;2022-12-18T00:30:16;34.90;;;19.17;;
43891;SDS011;29555;45.350;5.578;2022-12-18T00:32:41;23.95;;;14.07;;
43891;SDS011;29555;45.350;5.578;2022-12-18T00:35:07;28.25;;;15.32;;
43891;SDS011;29555;45.350;5.578;2022-12-18T00:37:33;29.38;;;14.20;;
43891;SDS011;29555;45.350;5.578;2022-12-18T00:39:59;27.25;;;14.60;;
43891;SDS011;29555;45.350;5.578;2022-12-18T00:42:24;25.35;;;14.65;;
43891;SDS011;29555;45.350;5.578;2022-12-18T00:45:08;25.60;;;13.00;;
43891;SDS011;29555;45.350;5.578;2022-12-18T00:47:34;33.65;;;14.57;;
43891;SDS011;29555;45.350;5.578;2022-12-18T00:49:59;19.65;;;12.23;;
43891;SDS011;29555;45.350;5.578;2022-12-18T00:52:25;37.85;;;20.05;;
43891;SDS011;29555;45.350;5.578;2022-12-18T00:54:50;60.80;;;28.88;;
43891;SDS011;29555;45.350;5.578;2022-12-18T00:57:15;121.68;;;42.72;;
43891;SDS011;29555;45.350;5.578;2022-12-18T00:59:41;157.40;;;56.85;;
43891;SDS011;29555;45.350;5.578;2022-12-18T01:02:06;152.10;;;56.95;;
43891;SDS011;29555;45.350;5.578;2022-12-18T01:04:32;107.68;;;41.75;;
43891;SDS011;29555;45.350;5.578;2022-12-18T01:06:58;161.00;;;60.50;;
43891;SDS011;29555;45.350;5.578;2022-12-18T01:09:23;125.32;;;50.67;;
43891;SDS011;29555;45.350;5.578;2022-12-18T01:11:49;109.25;;;46.60;;
43891;SDS011;29555;45.350;5.578;2022-12-18T01:14:14;39.50;;;24.27;;
43891;SDS011;29555;45.350;5.578;2022-12-18T01:16:39;69.80;;;32.38;;
43891;SDS011;29555;45.350;5.578;2022-12-18T01:19:05;67.30;;;28.70;;
43891;SDS011;29555;45.350;5.578;2022-12-18T01:21:30;77.38;;;32.08;;
43891;SDS011;29555;45.350;5.578;2022-12-18T01:23:56;98.18;;;41.28;;
43891;SDS011;29555;45.350;5.578;2022-12-18T01:26:22;71.30;;;28.60;;
43891;SDS011;29555;45.350;5.578;2022-12-18T01:28:48;44.92;;;22.35;;
43891;SDS011;29555;45.350;5.578;2022-12-18T01:33:50;41.15;;;22.77;;
43891;SDS011;29555;45.350;5.578;2022-12-18T01:36:20;43.85;;;23.50;;
43891;SDS011;29555;45.350;5.578;2022-12-18T01:38:46;47.30;;;23.77;;
43891;SDS011;29555;45.350;5.578;2022-12-18T01:41:13;28.88;;;19.25;;
43891;SDS011;29555;45.350;5.578;2022-12-18T01:43:43;51.67;;;25.35;;
43891;SDS011;29555;45.350;5.578;2022-12-18T01:46:14;47.20;;;25.20;;
43891;SDS011;29555;45.350;5.578;2022-12-18T01:48:40;41.50;;;21.10;;
43891;SDS011;29555;45.350;5.578;2022-12-18T01:51:06;36.53;;;21.50;;
43891;SDS011;29555;45.350;5.578;2022-12-18T01:53:34;27.77;;;16.92;;
43891;SDS011;29555;45.350;5.578;2022-12-18T01:56:01;34.90;;;18.90;;
43891;SDS011;29555;45.350;5.578;2022-12-18T01:58:29;32.22;;;17.88;;
43891;SDS011;29555;45.350;5.578;2022-12-18T02:01:05;35.95;;;19.23;;
43891;SDS011;29555;45.350;5.578;2022-12-18T02:03:31;35.13;;;20.15;;
43891;SDS011;29555;45.350;5.578;2022-12-18T02:06:40;35.97;;;20.48;;
43891;SDS011;29555;45.350;5.578;2022-12-18T02:14:38;42.42;;;19.02;;
43891;SDS011;29555;45.350;5.578;2022-12-18T02:17:18;37.38;;;19.58;;
43891;SDS011;29555;45.350;5.578;2022-12-18T02:25:23;26.52;;;16.58;;
43891;SDS011;29555;45.350;5.578;2022-12-18T02:27:54;25.73;;;15.65;;
43891;SDS011;29555;45.350;5.578;2022-12-18T02:30:24;20.90;;;12.95;;
43891;SDS011;29555;45.350;5.578;2022-12-18T02:32:50;19.10;;;11.90;;
43891;SDS011;29555;45.350;5.578;2022-12-18T02:35:20;20.70;;;13.55;;
43891;SDS011;29555;45.350;5.578;2022-12-18T02:37:49;20.85;;;11.65;;
43891;SDS011;29555;45.350;5.578;2022-12-18T02:40:19;20.15;;;11.25;;
43891;SDS011;29555;45.350;5.578;2022-12-18T02:42:46;19.20;;;11.23;;
43891;SDS011;29555;45.350;5.578;2022-12-18T02:45:12;18.55;;;12.43;;
43891;SDS011;29555;45.350;5.578;2022-12-18T02:47:39;16.38;;;10.52;;
43891;SDS011;29555;45.350;5.578;2022-12-18T02:52:38;16.33;;;9.73;;
43891;SDS011;29555;45.350;5.578;2022-12-18T02:55:12;16.40;;;9.65;;
43891;SDS011;29555;45.350;5.578;2022-12-18T03:00:16;20.42;;;10.38;;
43891;SDS011;29555;45.350;5.578;2022-12-18T03:02:48;22.50;;;12.25;;
43891;SDS011;29555;45.350;5.578;2022-12-18T03:08:24;21.80;;;11.32;;
43891;SDS011;29555;45.350;5.578;2022-12-18T03:11:02;16.63;;;8.88;;
43891;SDS011;29555;45.350;5.578;2022-12-18T03:13:30;20.25;;;13.25;;
43891;SDS011;29555;45.350;5.578;2022-12-18T03:15:56;19.83;;;11.93;;
43891;SDS011;29555;45.350;5.578;2022-12-18T03:18:27;17.48;;;9.63;;
43891;SDS011;29555;45.350;5.578;2022-12-18T03:20:58;17.73;;;9.33;;
43891;SDS011;29555;45.350;5.578;2022-12-18T03:23:27;19.00;;;12.52;;
43891;SDS011;29555;45.350;5.578;2022-12-18T03:25:58;25.48;;;11.77;;
43891;SDS011;29555;45.350;5.578;2022-12-18T03:28:26;14.88;;;8.98;;
43891;SDS011;29555;45.350;5.578;2022-12-18T03:30:55;15.65;;;10.27;;
43891;SDS011;29555;45.350;5.578;2022-12-18T03:33:27;24.35;;;13.00;;
43891;SDS011;29555;45.350;5.578;2022-12-18T03:35:55;19.20;;;10.10;;
43891;SDS011;29555;45.350;5.578;2022-12-18T03:38:21;17.73;;;11.93;;
43891;SDS011;29555;45.350;5.578;2022-12-18T03:40:59;24.80;;;12.02;;
43891;SDS011;29555;45.350;5.578;2022-12-18T03:46:17;24.60;;;13.47;;
43891;SDS011;29555;45.350;5.578;2022-12-18T03:48:51;22.48;;;13.88;;
43891;SDS011;29555;45.350;5.578;2022-12-18T03:51:25;18.70;;;11.52;;
43891;SDS011;29555;45.350;5.578;2022-12-18T03:53:58;21.42;;;11.38;;
43891;SDS011;29555;45.350;5.578;2022-12-18T03:56:26;15.73;;;11.63;;
43891;SDS011;29555;45.350;5.578;2022-12-18T03:58:55;18.70;;;9.95;;
43891;SDS011;29555;45.350;5.578;2022-12-18T04:01:25;18.67;;;8.80;;
43891;SDS011;29555;45.350;5.578;2022-12-18T04:06:24;17.08;;;9.93;;
43891;SDS011;29555;45.350;5.578;2022-12-18T04:08:49;18.15;;;9.38;;
43891;SDS011;29555;45.350;5.578;2022-12-18T04:11:15;17.67;;;10.77;;
43891;SDS011;29555;45.350;5.578;2022-12-18T04:13:41;20.15;;;10.73;;
43891;SDS011;29555;45.350;5.578;2022-12-18T04:16:07;18.95;;;10.80;;
43891;SDS011;29555;45.350;5.578;2022-12-18T04:18:34;16.40;;;8.88;;
43891;SDS011;29555;45.350;5.578;2022-12-18T04:21:00;19.58;;;9.98;;
43891;SDS011;29555;45.350;5.578;2022-12-18T04:23:26;19.92;;;9.63;;
43891;SDS011;29555;45.350;5.578;2022-12-18T04:25:52;17.40;;;9.68;;
43891;SDS011;29555;45.350;5.578;2022-12-18T04:28:17;18.67;;;10.32;;
43891;SDS011;29555;45.350;5.578;2022-12-18T04:30:42;24.13;;;11.20;;
43891;SDS011;29555;45.350;5.578;2022-12-18T04:33:09;14.93;;;10.13;;
43891;SDS011;29555;45.350;5.578;2022-12-18T04:35:35;18.48;;;10.15;;
43891;SDS011;29555;45.350;5.578;2022-12-18T04:38:00;21.52;;;10.77;;
43891;SDS011;29555;45.350;5.578;2022-12-18T04:40:25;20.25;;;9.73;;
43891;SDS011;29555;45.350;5.578;2022-12-18T04:42:51;23.30;;;11.88;;
43891;SDS011;29555;45.350;5.578;2022-12-18T04:45:16;22.13;;;9.45;;
43891;SDS011;29555;45.350;5.578;2022-12-18T04:47:42;17.60;;;11.05;;
43891;SDS011;29555;45.350;5.578;2022-12-18T04:50:07;15.70;;;9.75;;
43891;SDS011;29555;45.350;5.578;2022-12-18T04:52:33;20.33;;;10.93;;
43891;SDS011;29555;45.350;5.578;2022-12-18T04:54:58;18.25;;;9.73;;
43891;SDS011;29555;45.350;5.578;2022-12-18T04:57:24;23.67;;;11.27;;
43891;SDS011;29555;45.350;5.578;2022-12-18T04:59:49;19.75;;;10.57;;
43891;SDS011;29555;45.350;5.578;2022-12-18T05:02:14;18.77;;;11.00;;
43891;SDS011;29555;45.350;5.578;2022-12-18T05:04:40;16.08;;;9.70;;
43891;SDS011;29555;45.350;5.578;2022-12-18T05:07:05;16.15;;;9.68;;
43891;SDS011;29555;45.350;5.578;2022-12-18T05:09:30;15.88;;;9.00;;
43891;SDS011;29555;45.350;5.578;2022-12-18T05:11:56;13.73;;;8.30;;
43891;SDS011;29555;45.350;5.578;2022-12-18T05:14:21;17.50;;;9.25;;
43891;SDS011;29555;45.350;5.578;2022-12-18T05:16:46;17.50;;;10.38;;
43891;SDS011;29555;45.350;5.578;2022-12-18T05:19:12;22.77;;;11.05;;
43891;SDS011;29555;45.350;5.578;2022-12-18T05:21:37;20.17;;;10.00;;
43891;SDS011;29555;45.350;5.578;2022-12-18T05:24:03;11.38;;;7.32;;
43891;SDS011;29555;45.350;5.578;2022-12-18T05:26:28;15.93;;;9.82;;
43891;SDS011;29555;45.350;5.578;2022-12-18T05:28:57;14.70;;;8.55;;
43891;SDS011;29555;45.350;5.578;2022-12-18T05:31:22;17.13;;;8.90;;
43891;SDS011;29555;45.350;5.578;2022-12-18T05:33:50;16.50;;;9.70;;
43891;SDS011;29555;45.350;5.578;2022-12-18T05:36:16;15.45;;;8.63;;
43891;SDS011;29555;45.350;5.578;2022-12-18T05:38:41;11.93;;;7.40;;
43891;SDS011;29555;45.350;5.578;2022-12-18T05:41:07;18.55;;;8.95;;
43891;SDS011;29555;45.350;5.578;2022-12-18T05:43:33;15.35;;;9.15;;
43891;SDS011;29555;45.350;5.578;2022-12-18T05:46:03;14.77;;;10.20;;
43891;SDS011;29555;45.350;5.578;2022-12-18T05:48:32;16.08;;;9.43;;
43891;SDS011;29555;45.350;5.578;2022-12-18T05:51:02;20.42;;;10.13;;
43891;SDS011;29555;45.350;5.578;2022-12-18T05:53:30;15.32;;;9.02;;
43891;SDS011;29555;45.350;5.578;2022-12-18T05:55:59;16.25;;;9.80;;
43891;SDS011;29555;45.350;5.578;2022-12-18T05:58:25;17.45;;;9.98;;
43891;SDS011;29555;45.350;5.578;2022-12-18T06:00:50;18.98;;;8.57;;
43891;SDS011;29555;45.350;5.578;2022-12-18T06:03:16;16.60;;;7.70;;
43891;SDS011;29555;45.350;5.578;2022-12-18T06:05:42;13.35;;;8.38;;
43891;SDS011;29555;45.350;5.578;2022-12-18T06:08:09;16.38;;;9.05;;
43891;SDS011;29555;45.350;5.578;2022-12-18T06:10:35;18.08;;;8.82;;
43891;SDS011;29555;45.350;5.578;2022-12-18T06:13:01;14.85;;;9.63;;
43891;SDS011;29555;45.350;5.578;2022-12-18T06:15:26;18.95;;;9.13;;
43891;SDS011;29555;45.350;5.578;2022-12-18T06:17:52;20.42;;;11.40;;
43891;SDS011;29555;45.350;5.578;2022-12-18T06:20:17;19.92;;;10.65;;
43891;SDS011;29555;45.350;5.578;2022-12-18T06:22:43;24.95;;;10.13;;
43891;SDS011;29555;45.350;5.578;2022-12-18T06:25:09;22.95;;;10.88;;
43891;SDS011;29555;45.350;5.578;2022-12-18T06:27:34;19.42;;;9.98;;
43891;SDS011;29555;45.350;5.578;2022-12-18T06:30:00;18.13;;;10.30;;
43891;SDS011;29555;45.350;5.578;2022-12-18T06:32:25;13.65;;;8.20;;
43891;SDS011;29555;45.350;5.578;2022-12-18T06:34:51;11.60;;;7.20;;
43891;SDS011;29555;45.350;5.578;2022-12-18T06:37:16;14.98;;;8.95;;
43891;SDS011;29555;45.350;5.578;2022-12-18T06:39:42;21.55;;;8.50;;
43891;SDS011;29555;45.350;5.578;2022-12-18T06:42:07;16.15;;;9.05;;
43891;SDS011;29555;45.350;5.578;2022-12-18T06:44:33;11.88;;;7.72;;
43891;SDS011;29555;45.350;5.578;2022-12-18T06:46:58;13.50;;;7.60;;
43891;SDS011;29555;45.350;5.578;2022-12-18T06:49:23;17.27;;;9.23;;
43891;SDS011;29555;45.350;5.578;2022-12-18T06:51:49;15.98;;;8.68;;
43891;SDS011;29555;45.350;5.578;2022-12-18T06:54:14;20.30;;;9.90;;
43891;SDS011;29555;45.350;5.578;2022-12-18T06:56:39;15.52;;;8.95;;
43891;SDS011;29555;45.350;5.578;2022-12-18T06:59:05;14.93;;;8.25;;
43891;SDS011;29555;45.350;5.578;2022-12-18T07:01:31;19.02;;;9.10;;
43891;SDS011;29555;45.350;5.578;2022-12-18T07:03:57;17.05;;;6.80;;
43891;SDS011;29555;45.350;5.578;2022-12-18T07:06:24;9.75;;;7.40;;
43891;SDS011;29555;45.350;5.578;2022-12-18T07:08:51;13.15;;;7.35;;
43891;SDS011;29555;45.350;5.578;2022-12-18T07:11:18;10.68;;;5.93;;
43891;SDS011;29555;45.350;5.578;2022-12-18T07:13:45;12.38;;;8.18;;
43891;SDS011;29555;45.350;5.578;2022-12-18T07:16:13;12.23;;;7.85;;
43891;SDS011;29555;45.350;5.578;2022-12-18T07:18:40;17.13;;;7.03;;
43891;SDS011;29555;45.350;5.578;2022-12-18T07:21:07;12.35;;;8.18;;
43891;SDS011;29555;45.350;5.578;2022-12-18T07:23:35;17.63;;;7.55;;
43891;SDS011;29555;45.350;5.578;2022-12-18T07:26:06;9.95;;;6.43;;
43891;SDS011;29555;45.350;5.578;2022-12-18T07:28:34;12.05;;;6.60;;
43891;SDS011;29555;45.350;5.578;2022-12-18T07:31:20;11.05;;;7.60;;
43891;SDS011;29555;45.350;5.578;2022-12-18T07:33:46;13.48;;;6.68;;
43891;SDS011;29555;45.350;5.578;2022-12-18T07:36:12;12.55;;;8.13;;
43891;SDS011;29555;45.350;5.578;2022-12-18T07:38:39;12.32;;;7.10;;
43891;SDS011;29555;45.350;5.578;2022-12-18T07:41:08;9.32;;;7.28;;
43891;SDS011;29555;45.350;5.578;2022-12-18T07:43:37;13.60;;;7.60;;
43891;SDS011;29555;45.350;5.578;2022-12-18T07:46:03;13.38;;;8.32;;
43891;SDS011;29555;45.350;5.578;2022-12-18T07:48:29;11.98;;;7.65;;
43891;SDS011;29555;45.350;5.578;2022-12-18T07:51:02;15.18;;;8.00;;
43891;SDS011;29555;45.350;5.578;2022-12-18T07:53:29;13.57;;;8.80;;
43891;SDS011;29555;45.350;5.578;2022-12-18T07:55:57;20.13;;;10.15;;
43891;SDS011;29555;45.350;5.578;2022-12-18T07:58:24;25.45;;;10.10;;
43891;SDS011;29555;45.350;5.578;2022-12-18T08:00:50;14.40;;;10.38;;
43891;SDS011;29555;45.350;5.578;2022-12-18T08:03:17;15.60;;;9.02;;
43891;SDS011;29555;45.350;5.578;2022-12-18T08:05:43;17.05;;;10.23;;
43891;SDS011;29555;45.350;5.578;2022-12-18T08:08:10;19.40;;;9.93;;
43891;SDS011;29555;45.350;5.578;2022-12-18T08:10:36;16.63;;;8.60;;
43891;SDS011;29555;45.350;5.578;2022-12-18T08:13:02;16.85;;;8.85;;
43891;SDS011;29555;45.350;5.578;2022-12-18T08:15:27;13.20;;;7.25;;
43891;SDS011;29555;45.350;5.578;2022-12-18T08:17:55;17.30;;;7.72;;
43891;SDS011;29555;45.350;5.578;2022-12-18T08:20:21;13.50;;;8.05;;
43891;SDS011;29555;45.350;5.578;2022-12-18T08:22:47;17.95;;;8.90;;
43891;SDS011;29555;45.350;5.578;2022-12-18T08:25:12;13.32;;;7.10;;
43891;SDS011;29555;45.350;5.578;2022-12-18T08:27:37;20.95;;;10.98;;
43891;SDS011;29555;45.350;5.578;2022-12-18T08:30:03;23.42;;;12.30;;
43891;SDS011;29555;45.350;5.578;2022-12-18T08:32:29;21.17;;;11.07;;
43891;SDS011;29555;45.350;5.578;2022-12-18T08:34:54;18.88;;;10.13;;
43891;SDS011;29555;45.350;5.578;2022-12-18T08:37:20;16.20;;;8.70;;
43891;SDS011;29555;45.350;5.578;2022-12-18T08:39:45;18.88;;;8.57;;
43891;SDS011;29555;45.350;5.578;2022-12-18T08:42:10;11.88;;;6.93;;
43891;SDS011;29555;45.350;5.578;2022-12-18T08:44:55;11.88;;;7.55;;
43891;SDS011;29555;45.350;5.578;2022-12-18T08:47:20;10.82;;;7.38;;
43891;SDS011;29555;45.350;5.578;2022-12-18T08:49:45;15.00;;;7.85;;
43891;SDS011;29555;45.350;5.578;2022-12-18T08:52:13;11.50;;;6.70;;
43891;SDS011;29555;45.350;5.578;2022-12-18T08:54:39;15.15;;;7.80;;
43891;SDS011;29555;45.350;5.578;2022-12-18T08:57:04;12.90;;;7.60;;
43891;SDS011;29555;45.350;5.578;2022-12-18T08:59:29;14.30;;;7.13;;
43891;SDS011;29555;45.350;5.578;2022-12-18T09:01:55;11.93;;;7.07;;
43891;SDS011;29555;45.350;5.578;2022-12-18T09:04:20;10.32;;;8.52;;
43891;SDS011;29555;45.350;5.578;2022-12-18T09:06:46;16.08;;;8.02;;
43891;SDS011;29555;45.350;5.578;2022-12-18T09:09:11;19.75;;;8.82;;
43891;SDS011;29555;45.350;5.578;2022-12-18T09:11:38;12.77;;;6.63;;
43891;SDS011;29555;45.350;5.578;2022-12-18T09:14:03;8.77;;;7.10;;
43891;SDS011;29555;45.350;5.578;2022-12-18T09:16:29;12.13;;;7.28;;
43891;SDS011;29555;45.350;5.578;2022-12-18T09:18:56;15.68;;;9.93;;
43891;SDS011;29555;45.350;5.578;2022-12-18T09:21:24;12.88;;;7.68;;
43891;SDS011;29555;45.350;5.578;2022-12-18T09:23:51;14.45;;;8.02;;
43891;SDS011;29555;45.350;5.578;2022-12-18T09:26:18;10.80;;;7.00;;
43891;SDS011;29555;45.350;5.578;2022-12-18T09:28:44;12.65;;;7.63;;
43891;SDS011;29555;45.350;5.578;2022-12-18T09:31:10;14.50;;;7.70;;
43891;SDS011;29555;45.350;5.578;2022-12-18T09:33:40;11.60;;;7.22;;
43891;SDS011;29555;45.350;5.578;2022-12-18T09:36:06;13.00;;;6.65;;
43891;SDS011;29555;45.350;5.578;2022-12-18T09:38:34;12.23;;;7.80;;
43891;SDS011;29555;45.350;5.578;2022-12-18T09:41:22;14.73;;;7.78;;
43891;SDS011;29555;45.350;5.578;2022-12-18T09:43:57;27.50;;;19.15;;
43891;SDS011;29555;45.350;5.578;2022-12-18T09:46:30;143.73;;;64.90;;
43891;SDS011;29555;45.350;5.578;2022-12-18T09:48:59;131.23;;;57.25;;
43891;SDS011;29555;45.350;5.578;2022-12-18T09:51:37;71.20;;;37.10;;
43891;SDS011;29555;45.350;5.578;2022-12-18T09:54:11;47.78;;;25.17;;
43891;SDS011;29555;45.350;5.578;2022-12-18T09:56:41;35.88;;;20.42;;
43891;SDS011;29555;45.350;5.578;2022-12-18T09:59:15;42.72;;;20.95;;
43891;SDS011;29555;45.350;5.578;2022-12-18T10:01:50;28.27;;;15.85;;
43891;SDS011;29555;45.350;5.578;2022-12-18T10:04:15;36.00;;;20.58;;
43891;SDS011;29555;45.350;5.578;2022-12-18T10:20:47;11.23;;;7.20;;
43891;SDS011;29555;45.350;5.578;2022-12-18T10:28:20;14.70;;;6.35;;
43891;SDS011;29555;45.350;5.578;2022-12-18T10:30:46;12.20;;;7.57;;
43891;SDS011;29555;45.350;5.578;2022-12-18T10:33:13;10.88;;;6.57;;
43891;SDS011;29555;45.350;5.578;2022-12-18T10:35:44;12.25;;;6.00;;
43891;SDS011;29555;45.350;5.578;2022-12-18T10:43:28;6.35;;;5.47;;
43891;SDS011;29555;45.350;5.578;2022-12-18T10:48:35;6.75;;;3.90;;
43891;SDS011;29555;45.350;5.578;2022-12-18T10:51:04;8.10;;;5.43;;
43891;SDS011;29555;45.350;5.578;2022-12-18T10:53:31;9.80;;;8.18;;
43891;SDS011;29555;45.350;5.578;2022-12-18T10:56:02;10.48;;;6.78;;
43891;SDS011;29555;45.350;5.578;2022-12-18T10:58:33;11.40;;;6.50;;
43891;SDS011;29555;45.350;5.578;2022-12-18T11:03:39;6.47;;;3.63;;
43891;SDS011;29555;45.350;5.578;2022-12-18T11:06:21;10.70;;;7.38;;
43891;SDS011;29555;45.350;5.578;2022-12-18T11:09:05;6.70;;;4.25;;
43891;SDS011;29555;45.350;5.578;2022-12-18T11:11:48;21.63;;;13.07;;
43891;SDS011;29555;45.350;5.578;2022-12-18T11:15:01;11.65;;;6.95;;
43891;SDS011;29555;45.350;5.578;2022-12-18T11:17:20;18.25;;;9.70;;
43891;SDS011;29555;45.350;5.578;2022-12-18T11:19:55;12.10;;;7.13;;
43891;SDS011;29555;45.350;5.578;2022-12-18T11:25:16;27.80;;;16.40;;
43891;SDS011;29555;45.350;5.578;2022-12-18T11:27:55;14.43;;;8.95;;
43891;SDS011;29555;45.350;5.578;2022-12-18T11:33:06;8.20;;;5.22;;
43891;SDS011;29555;45.350;5.578;2022-12-18T11:35:38;7.63;;;4.75;;
43891;SDS011;29555;45.350;5.578;2022-12-18T11:43:50;16.35;;;8.73;;
43891;SDS011;29555;45.350;5.578;2022-12-18T11:46:34;8.20;;;5.68;;
43891;SDS011;29555;45.350;5.578;2022-12-18T11:52:15;10.50;;;5.85;;
43891;SDS011;29555;45.350;5.578;2022-12-18T11:54:44;24.15;;;10.00;;
43891;SDS011;29555;45.350;5.578;2022-12-18T11:57:19;12.18;;;7.30;;
43891;SDS011;29555;45.350;5.578;2022-12-18T12:05:49;14.15;;;6.32;;
43891;SDS011;29555;45.350;5.578;2022-12-18T12:16:50;10.65;;;7.57;;
43891;SDS011;29555;45.350;5.578;2022-12-18T12:19:45;8.30;;;4.97;;
43891;SDS011;29555;45.350;5.578;2022-12-18T12:25:46;6.57;;;4.25;;
43891;SDS011;29555;45.350;5.578;2022-12-18T12:28:46;7.10;;;4.32;;
43891;SDS011;29555;45.350;5.578;2022-12-18T12:31:40;5.53;;;3.85;;
43891;SDS011;29555;45.350;5.578;2022-12-18T12:34:19;7.80;;;4.20;;
43891;SDS011;29555;45.350;5.578;2022-12-18T12:39:28;7.47;;;3.60;;
43891;SDS011;29555;45.350;5.578;2022-12-18T12:41:56;7.90;;;4.72;;
43891;SDS011;29555;45.350;5.578;2022-12-18T12:44:42;5.68;;;3.25;;
43891;SDS011;29555;45.350;5.578;2022-12-18T12:47:15;7.78;;;5.25;;
43891;SDS011;29555;45.350;5.578;2022-12-18T12:49:43;6.03;;;4.00;;
43891;SDS011;29555;45.350;5.578;2022-12-18T12:52:14;8.50;;;4.22;;
43891;SDS011;29555;45.350;5.578;2022-12-18T12:54:41;4.50;;;3.28;;
43891;SDS011;29555;45.350;5.578;2022-12-18T12:57:12;6.32;;;4.20;;
43891;SDS011;29555;45.350;5.578;2022-12-18T13:05:05;11.10;;;5.72;;
43891;SDS011;29555;45.350;5.578;2022-12-18T13:07:47;12.10;;;6.85;;
43891;SDS011;29555;45.350;5.578;2022-12-18T13:12:57;7.95;;;5.60;;
43891;SDS011;29555;45.350;5.578;2022-12-18T13:20:33;30.80;;;15.02;;
43891;SDS011;29555;45.350;5.578;2022-12-18T13:23:01;11.63;;;7.15;;
43891;SDS011;29555;45.350;5.578;2022-12-18T13:25:43;7.32;;;3.03;;
43891;SDS011;29555;45.350;5.578;2022-12-18T13:28:15;5.25;;;4.28;;
43891;SDS011;29555;45.350;5.578;2022-12-18T13:48:29;33.88;;;19.40;;
43891;SDS011;29555;45.350;5.578;2022-12-18T13:51:05;23.27;;;15.45;;
43891;SDS011;29555;45.350;5.578;2022-12-18T13:53:33;8.35;;;6.07;;
43891;SDS011;29555;45.350;5.578;2022-12-18T13:55:59;8.38;;;5.93;;
43891;SDS011;29555;45.350;5.578;2022-12-18T13:58:25;6.43;;;4.18;;
43891;SDS011;29555;45.350;5.578;2022-12-18T14:00:50;8.05;;;4.72;;
43891;SDS011;29555;45.350;5.578;2022-12-18T14:03:17;14.10;;;9.88;;
43891;SDS011;29555;45.350;5.578;2022-12-18T14:05:52;14.32;;;7.15;;
43891;SDS011;29555;45.350;5.578;2022-12-18T14:10:46;20.60;;;12.77;;
43891;SDS011;29555;45.350;5.578;2022-12-18T14:13:16;12.15;;;7.93;;
43891;SDS011;29555;45.350;5.578;2022-12-18T14:15:46;25.07;;;15.10;;
43891;SDS011;29555;45.350;5.578;2022-12-18T14:21:02;10.00;;;7.85;;
43891;SDS011;29555;45.350;5.578;2022-12-18T14:23:35;21.60;;;9.88;;
43891;SDS011;29555;45.350;5.578;2022-12-18T14:26:03;32.95;;;20.63;;
43891;SDS011;29555;45.350;5.578;2022-12-18T14:28:49;32.30;;;17.83;;
43891;SDS011;29555;45.350;5.578;2022-12-18T14:31:18;21.80;;;15.65;;
43891;SDS011;29555;45.350;5.578;2022-12-18T14:33:50;17.42;;;12.32;;
43891;SDS011;29555;45.350;5.578;2022-12-18T14:36:17;30.10;;;18.48;;
43891;SDS011;29555;45.350;5.578;2022-12-18T14:38:55;22.03;;;12.03;;
43891;SDS011;29555;45.350;5.578;2022-12-18T14:41:22;10.32;;;7.10;;
43891;SDS011;29555;45.350;5.578;2022-12-18T14:43:49;12.73;;;8.32;;
43891;SDS011;29555;45.350;5.578;2022-12-18T14:46:49;14.13;;;9.27;;
43891;SDS011;29555;45.350;5.578;2022-12-18T14:49:30;14.30;;;8.80;;
43891;SDS011;29555;45.350;5.578;2022-12-18T14:52:01;13.05;;;8.43;;
43891;SDS011;29555;45.350;5.578;2022-12-18T14:54:31;12.50;;;8.13;;
43891;SDS011;29555;45.350;5.578;2022-12-18T14:57:02;22.75;;;13.13;;
43891;SDS011;29555;45.350;5.578;2022-12-18T14:59:30;17.42;;;10.45;;
43891;SDS011;29555;45.350;5.578;2022-12-18T15:04:43;20.50;;;11.02;;
43891;SDS011;29555;45.350;5.578;2022-12-18T15:07:16;20.88;;;14.60;;
43891;SDS011;29555;45.350;5.578;2022-12-18T15:09:46;28.60;;;16.77;;
43891;SDS011;29555;45.350;5.578;2022-12-18T15:12:48;34.80;;;19.42;;
43891;SDS011;29555;45.350;5.578;2022-12-18T15:18:02;38.67;;;21.25;;
43891;SDS011;29555;45.350;5.578;2022-12-18T15:20:47;39.47;;;19.42;;
43891;SDS011;29555;45.350;5.578;2022-12-18T15:25:45;41.47;;;17.80;;
43891;SDS011;29555;45.350;5.578;2022-12-18T15:28:16;61.42;;;29.15;;
43891;SDS011;29555;45.350;5.578;2022-12-18T15:36:18;156.40;;;64.47;;
43891;SDS011;29555;45.350;5.578;2022-12-18T15:38:47;64.35;;;29.25;;
43891;SDS011;29555;45.350;5.578;2022-12-18T15:41:14;112.93;;;51.97;;
43891;SDS011;29555;45.350;5.578;2022-12-18T15:43:44;182.05;;;78.93;;
43891;SDS011;29555;45.350;5.578;2022-12-18T15:46:13;112.38;;;50.78;;
43891;SDS011;29555;45.350;5.578;2022-12-18T15:48:42;77.03;;;40.63;;
43891;SDS011;29555;45.350;5.578;2022-12-18T15:51:16;72.70;;;36.50;;
43891;SDS011;29555;45.350;5.578;2022-12-18T15:53:50;44.13;;;24.45;;
43891;SDS011;29555;45.350;5.578;2022-12-18T15:56:19;23.60;;;14.45;;
43891;SDS011;29555;45.350;5.578;2022-12-18T15:59:10;45.35;;;23.05;;
43891;SDS011;29555;45.350;5.578;2022-12-18T16:01:37;29.35;;;16.02;;
43891;SDS011;29555;45.350;5.578;2022-12-18T16:04:03;23.60;;;14.65;;
43891;SDS011;29555;45.350;5.578;2022-12-18T16:06:28;23.42;;;14.68;;
43891;SDS011;29555;45.350;5.578;2022-12-18T16:08:53;15.25;;;11.25;;
43891;SDS011;29555;45.350;5.578;2022-12-18T16:11:26;14.95;;;9.75;;
43891;SDS011;29555;45.350;5.578;2022-12-18T16:16:45;12.00;;;6.75;;
43891;SDS011;29555;45.350;5.578;2022-12-18T16:19:11;15.70;;;8.35;;
43891;SDS011;29555;45.350;5.578;2022-12-18T16:21:37;14.63;;;7.40;;
43891;SDS011;29555;45.350;5.578;2022-12-18T16:24:02;8.73;;;7.00;;
43891;SDS011;29555;45.350;5.578;2022-12-18T16:26:28;10.38;;;6.85;;
43891;SDS011;29555;45.350;5.578;2022-12-18T16:28:53;14.20;;;7.70;;
43891;SDS011;29555;45.350;5.578;2022-12-18T16:31:19;11.43;;;8.35;;
43891;SDS011;29555;45.350;5.578;2022-12-18T16:33:44;8.65;;;6.47;;
43891;SDS011;29555;45.350;5.578;2022-12-18T16:36:09;7.78;;;6.38;;
43891;SDS011;29555;45.350;5.578;2022-12-18T16:38:35;12.98;;;6.90;;
43891;SDS011;29555;45.350;5.578;2022-12-18T16:41:00;11.75;;;7.22;;
43891;SDS011;29555;45.350;5.578;2022-12-18T16:43:44;10.57;;;7.03;;
43891;SDS011;29555;45.350;5.578;2022-12-18T16:46:09;10.23;;;7.75;;
43891;SDS011;29555;45.350;5.578;2022-12-18T16:48:35;17.10;;;10.30;;
43891;SDS011;29555;45.350;5.578;2022-12-18T16:51:01;11.45;;;8.20;;
43891;SDS011;29555;45.350;5.578;2022-12-18T16:53:27;12.85;;;9.38;;
43891;SDS011;29555;45.350;5.578;2022-12-18T16:55:54;10.95;;;7.78;;
43891;SDS011;29555;45.350;5.578;2022-12-18T16:58:20;12.63;;;6.97;;
43891;SDS011;29555;45.350;5.578;2022-12-18T17:00:45;18.25;;;11.02;;
43891;SDS011;29555;45.350;5.578;2022-12-18T17:03:10;23.00;;;13.35;;